Time;durP1;ratioP1;P1;durP2;ratioP2;P2;SDS_P1;SDS_P2;PMS_P1;PMS_P2;Temp;Humidity;BMP_temperature;BMP_pressure;BME280_temperature;BME280_humidity;BME280_pressure;Samples;Min_cycle;Max_cycle;Signal;HPM_P1;HPM_P2
2021/12/22 00:00:48;;;;;;;;;;;;;;;18.91;45.91;99977.97;2092726;28;19916;-40
2021/12/22 00:01:49;;;;;;;;;;;;;;;18.90;45.86;99966.19;2093354;28;19916;-40
2021/12/22 00:02:50;;;;;;;;;;;;;;;18.90;45.92;99971.66;2091302;28;19966;-40
2021/12/22 00:03:51;;;;;;;;;;;;;;;18.91;45.83;99972.50;2095429;28;19916;-40
2021/12/22 00:04:53;;;;;;;;;;;;;;;18.89;45.84;99963.59;2091232;28;20581;-40
2021/12/22 00:05:54;;;;;;;;;;;;;;;18.89;45.88;99969.94;2091467;28;20294;-40
2021/12/22 00:06:54;;;;;;;;;;;;;;;18.90;45.78;99970.78;2092343;28;20040;-41
2021/12/22 00:07:54;;;;;;;;;;;;;;;18.90;45.87;99968.06;2091524;28;19950;-40
2021/12/22 00:08:55;;;;;;;;;;;;;;;18.90;45.88;99968.06;2092166;28;19974;-40
2021/12/22 00:09:55;;;;;;;;;;;;;;;18.89;45.79;99966.31;2090889;28;19966;-40
2021/12/22 00:10:56;;;;;;;;;;;;;;;18.89;45.77;99966.31;2090335;28;19916;-40
2021/12/22 00:11:56;;;;;;;;;;;;;;;18.89;45.73;99969.06;2096746;28;19916;-40
2021/12/22 00:12:56;;;;;;;;;;;;;;;18.89;45.81;99969.06;2091714;28;19926;-40
2021/12/22 00:13:57;;;;;;;;;;;;;;;18.88;45.80;99973.66;2093306;28;19923;-41
2021/12/22 00:14:57;;;;;;;;;;;;;;;18.88;45.79;99967.34;2093002;28;19965;-40
2021/12/22 00:15:57;;;;;;;;;;;;;;;18.88;45.89;99961.88;2089980;28;19922;-40
2021/12/22 00:16:57;;;;;;;;;;;;;;;18.88;45.81;99961.88;2096323;28;19920;-40
2021/12/22 00:17:58;;;;;;;;;;;;;;;18.88;45.92;99964.63;2089852;28;19916;-40
2021/12/22 00:18:58;;;;;;;;;;;;;;;18.87;45.77;99968.38;2091409;28;19916;-40
2021/12/22 00:19:58;;;;;;;;;;;;;;;18.87;45.81;99966.50;2092076;28;20240;-40
2021/12/22 00:20:59;;;;;;;;;;;;;;;18.88;45.77;99970.09;2092162;28;19916;-40
2021/12/22 00:22:00;;;;;;;;;;;;;;;18.87;45.97;99965.66;2091589;28;19916;-40
2021/12/22 00:23:00;;;;;;;;;;;;;;;18.87;45.83;99966.50;2094210;28;19916;-40
2021/12/22 00:24:01;;;;;;;;;;;;;;;18.86;45.85;99970.22;2090089;28;20443;-40
2021/12/22 00:25:01;;;;;;;;;;;;;;;18.87;45.72;99960.19;2097732;28;19916;-40
2021/12/22 00:26:02;;;;;;;;;;;;;;;18.87;45.87;99966.50;2079959;28;20471;-40
2021/12/22 00:27:03;;;;;;;;;;;;;;;18.87;45.70;99960.19;2083644;28;19908;-40
2021/12/22 00:28:04;;;;;;;;;;;;;;;18.84;45.93;99962.19;2093370;28;20171;-40
2021/12/22 00:29:05;;;;;;;;;;;;;;;18.86;45.78;99959.28;2091275;28;19920;-40
2021/12/22 00:30:06;;;;;;;;;;;;;;;18.85;46.01;99958.44;2093079;28;19920;-40
2021/12/22 00:31:11;;;;;;;;;;;;;;;18.87;45.74;99960.19;2090088;28;19916;-40
2021/12/22 00:32:13;;;;;;;;;;;;;;;18.87;45.82;99958.31;2091694;28;19981;-40
2021/12/22 00:33:14;;;;;;;;;;;;;;;18.88;45.71;99956.44;2092737;28;19921;-40
2021/12/22 00:34:17;;;;;;;;;;;;;;;18.88;45.71;99956.44;2090569;28;19928;-40
2021/12/22 00:35:24;;;;;;;;;;;;;;;18.88;45.81;99951.81;2094426;28;19946;-41
2021/12/22 00:36:25;;;;;;;;;;;;;;;18.89;45.88;99958.13;2087500;28;19917;-40
2021/12/22 00:37:26;;;;;;;;;;;;;;;18.90;45.66;99959.88;2086906;28;20435;-41
2021/12/22 00:38:27;;;;;;;;;;;;;;;18.90;45.71;99957.13;2093400;28;20040;-40
2021/12/22 00:39:27;;;;;;;;;;;;;;;18.90;45.79;99952.53;2089328;28;19959;-40
2021/12/22 00:40:27;;;;;;;;;;;;;;;18.92;45.74;99952.38;2090056;28;19916;-40
2021/12/22 00:41:28;;;;;;;;;;;;;;;18.92;45.64;99960.59;2092506;28;19920;-41
2021/12/22 00:42:28;;;;;;;;;;;;;;;18.91;45.66;99956.13;2091526;28;19916;-40
2021/12/22 00:43:28;;;;;;;;;;;;;;;18.93;45.68;99959.56;2090784;28;20493;-40
2021/12/22 00:44:29;;;;;;;;;;;;;;;18.93;45.72;99954.09;2093277;28;19908;-40
2021/12/22 00:45:31;;;;;;;;;;;;;;;18.93;45.55;99952.22;2090368;28;19923;-41
2021/12/22 00:46:32;;;;;;;;;;;;;;;18.93;45.77;99959.56;2090033;28;20105;-40
2021/12/22 00:47:32;;;;;;;;;;;;;;;18.94;45.56;99950.38;2093808;28;19916;-40
2021/12/22 00:48:32;;;;;;;;;;;;;;;18.93;45.53;99956.81;2089545;28;20298;-40
2021/12/22 00:49:33;;;;;;;;;;;;;;;18.93;45.55;99948.63;2091571;28;19994;-41
2021/12/22 00:50:34;;;;;;;;;;;;;;;18.92;45.71;99945.06;2084395;28;19913;-41
2021/12/22 00:51:35;;;;;;;;;;;;;;;18.93;45.67;99943.16;2083829;28;20366;-40
2021/12/22 00:52:35;;;;;;;;;;;;;;;18.93;45.68;99943.16;2092252;28;21118;-40
2021/12/22 00:53:35;;;;;;;;;;;;;;;18.91;45.47;99937.00;2093397;28;19904;-40
2021/12/22 00:54:36;;;;;;;;;;;;;;;18.93;45.53;99943.16;2087743;28;20699;-40
2021/12/22 00:55:36;;;;;;;;;;;;;;;18.94;45.66;99942.19;2091895;28;19920;-40
2021/12/22 00:56:38;;;;;;;;;;;;;;;18.92;45.56;99936.84;2090608;28;20225;-40
2021/12/22 00:57:39;;;;;;;;;;;;;;;18.94;45.56;99944.91;2090109;28;19930;-40
2021/12/22 00:58:39;;;;;;;;;;;;;;;18.95;45.54;99941.16;2094207;28;19999;-40
2021/12/22 00:59:39;;;;;;;;;;;;;;;18.94;45.64;99937.56;2091238;28;20306;-40
2021/12/22 01:00:40;;;;;;;;;;;;;;;18.96;45.65;99938.28;2089147;28;20311;-40
2021/12/22 01:01:40;;;;;;;;;;;;;;;18.95;45.58;99942.00;2093093;28;20006;-40
2021/12/22 01:02:42;;;;;;;;;;;;;;;18.96;45.58;99943.75;2090304;28;19912;-40
2021/12/22 01:03:42;;;;;;;;;;;;;;;18.97;45.56;99944.59;2089319;28;20285;-40
2021/12/22 01:04:43;;;;;;;;;;;;;;;18.96;45.67;99946.47;2077538;28;19920;-41
2021/12/22 01:05:44;;;;;;;;;;;;;;;18.96;45.65;99940.13;2082505;28;19946;-41
2021/12/22 01:06:45;;;;;;;;;;;;;;;18.96;45.71;99937.41;2089740;28;19961;-40
2021/12/22 01:07:47;;;;;;;;;;;;;;;18.96;45.58;99937.41;2087602;28;20318;-40
2021/12/22 01:08:47;;;;;;;;;;;;;;;18.94;45.63;99940.31;2091730;28;19916;-40
2021/12/22 01:09:47;;;;;;;;;;;;;;;18.95;45.69;99935.69;2090430;28;19951;-40
2021/12/22 01:10:48;;;;;;;;;;;;;;;18.95;45.67;99935.69;2090999;28;19908;-40
2021/12/22 01:11:48;;;;;;;;;;;;;;;18.94;45.66;99939.44;2093031;28;19916;-41
2021/12/22 01:12:52;;;;;;;;;;;;;;;18.93;45.67;99937.72;2087620;28;19961;-40
2021/12/22 01:13:52;;;;;;;;;;;;;;;18.94;45.64;99940.31;2081795;28;20411;-40
2021/12/22 01:14:53;;;;;;;;;;;;;;;18.95;45.69;99941.16;2083881;28;19920;-40
2021/12/22 01:15:53;;;;;;;;;;;;;;;18.95;45.63;99941.16;2075131;28;19924;-40
2021/12/22 01:16:59;;;;;;;;;;;;;;;18.94;45.63;99934.84;2076547;28;19913;-40
2021/12/22 01:18:04;;;;;;;;;;;;;;;18.93;45.72;99937.72;2091595;28;19920;-40
2021/12/22 01:19:11;;;;;;;;;;;;;;;18.94;45.62;99939.44;2090281;28;19927;-40
2021/12/22 01:20:22;;;;;;;;;;;;;;;18.94;45.52;99932.09;2088603;28;20192;-40
2021/12/22 01:21:39;;;;;;;;;;;;;;;18.93;45.63;99929.50;2085245;28;19960;-40
2021/12/22 01:24:10;;;;;;;;;;;;;;;18.93;45.80;99934.97;2093224;28;20626;-40
2021/12/22 01:25:13;;;;;;;;;;;;;;;18.93;45.65;99927.63;2089538;28;19917;-39
2021/12/22 01:26:13;;;;;;;;;;;;;;;18.93;45.63;99932.25;2086884;28;19916;-40
2021/12/22 01:27:15;;;;;;;;;;;;;;;18.92;45.78;99931.41;2089898;28;19966;-40
2021/12/22 01:28:16;;;;;;;;;;;;;;;18.94;45.77;99933.97;2091739;28;19952;-40
2021/12/22 01:29:17;;;;;;;;;;;;;;;18.93;45.72;99935.81;2090712;28;19982;-40
2021/12/22 01:30:20;;;;;;;;;;;;;;;18.93;45.81;99937.72;2092405;28;19920;-40
2021/12/22 01:31:20;;;;;;;;;;;;;;;18.92;45.80;99933.28;2092754;28;20718;-40
2021/12/22 01:32:21;;;;;;;;;;;;;;;18.92;45.70;99939.59;2089503;28;19912;-40
2021/12/22 01:33:21;;;;;;;;;;;;;;;18.91;45.83;99929.66;2093230;28;19908;-40
2021/12/22 01:34:22;;;;;;;;;;;;;;;18.92;45.76;99933.28;2089086;28;19925;-40
2021/12/22 01:35:24;;;;;;;;;;;;;;;18.92;45.79;99927.81;2093049;28;19927;-41
2021/12/22 01:36:24;;;;;;;;;;;;;;;18.90;45.76;99929.81;2090707;28;19922;-41
2021/12/22 01:37:25;;;;;;;;;;;;;;;18.91;45.69;99928.81;2093421;28;19916;-40
2021/12/22 01:38:25;;;;;;;;;;;;;;;18.92;45.88;99930.53;2086925;28;19920;-40
2021/12/22 01:39:26;;;;;;;;;;;;;;;18.90;45.75;99927.94;2093281;28;20295;-40
2021/12/22 01:40:27;;;;;;;;;;;;;;;18.90;45.84;99930.69;2099873;28;19942;-40
2021/12/22 01:41:27;;;;;;;;;;;;;;;18.89;45.81;99930.81;2091592;28;19923;-40
2021/12/22 01:42:28;;;;;;;;;;;;;;;18.91;45.75;99934.25;2094148;28;19916;-40
2021/12/22 01:43:29;;;;;;;;;;;;;;;18.90;45.84;99925.22;2090759;28;19935;-40
2021/12/22 01:44:49;;;;;;;;;;;;;;;18.90;45.67;99927.09;2091031;28;19916;-40
2021/12/22 01:49:57;;;;;;;;;;;;;;;18.88;45.85;99929.97;2093171;28;19921;-40
2021/12/22 01:51:03;;;;;;;;;;;;;;;18.87;45.76;99930.13;2089421;28;19930;-40
2021/12/22 01:52:05;;;;;;;;;;;;;;;18.88;45.71;99934.56;2092992;28;19969;-40
2021/12/22 01:53:10;;;;;;;;;;;;;;;18.88;45.73;99937.31;2089126;28;20708;-40
2021/12/22 01:54:27;;;;;;;;;;;;;;;18.88;45.68;99945.50;2091053;28;19916;-41
2021/12/22 01:55:34;;;;;;;;;;;;;;;18.88;45.66;99940.91;2077685;28;19928;-39
2021/12/22 01:56:35;;;;;;;;;;;;;;;18.87;45.72;99939.19;2083385;28;20023;-40
2021/12/22 01:57:43;;;;;;;;;;;;;;;18.87;45.81;99941.91;2088976;28;20602;-40
2021/12/22 01:58:45;;;;;;;;;;;;;;;18.86;45.83;99942.91;2091278;28;19927;-41
2021/12/22 01:59:47;;;;;;;;;;;;;;;18.87;45.82;99943.78;2093092;28;19955;-40
2021/12/22 02:00:47;;;;;;;;;;;;;;;18.86;45.73;99948.38;2089533;28;20074;-40
2021/12/22 02:01:48;;;;;;;;;;;;;;;18.85;45.82;99947.53;2082032;28;19917;-41
2021/12/22 02:02:48;;;;;;;;;;;;;;;18.85;45.76;99947.53;2084891;28;19983;-40
2021/12/22 02:03:49;;;;;;;;;;;;;;;18.85;45.84;99952.13;2089608;28;19917;-40
2021/12/22 02:04:50;;;;;;;;;;;;;;;18.84;45.83;99951.28;2093741;28;19916;-40
2021/12/22 02:05:50;;;;;;;;;;;;;;;18.84;45.79;99955.88;2090436;28;19970;-40
2021/12/22 02:06:50;;;;;;;;;;;;;;;18.83;45.75;99955.00;2091860;28;19916;-41
2021/12/22 02:07:56;;;;;;;;;;;;;;;18.83;45.77;99960.47;2092470;28;19916;-40
2021/12/22 02:08:58;;;;;;;;;;;;;;;18.83;45.80;99960.47;2091458;28;19937;-40
2021/12/22 02:10:10;;;;;;;;;;;;;;;18.84;45.82;99961.34;2086543;28;19994;-40
2021/12/22 02:11:11;;;;;;;;;;;;;;;18.81;45.78;99953.44;2080151;28;20144;-40
2021/12/22 02:12:12;;;;;;;;;;;;;;;18.81;45.89;99950.69;2095679;28;19912;-40
2021/12/22 02:13:22;;;;;;;;;;;;;;;18.82;45.86;99958.75;2094237;28;19986;-40
2021/12/22 02:14:22;;;;;;;;;;;;;;;18.83;45.86;99959.59;2086069;28;19916;-40
2021/12/22 02:15:22;;;;;;;;;;;;;;;18.80;45.67;99955.31;2091153;28;19942;-40
2021/12/22 02:16:27;;;;;;;;;;;;;;;18.79;45.75;99953.59;2095683;28;19916;-39
2021/12/22 02:17:28;;;;;;;;;;;;;;;18.81;45.68;99961.63;2094865;28;19908;-40
2021/12/22 02:18:31;;;;;;;;;;;;;;;18.79;45.89;99959.06;2088141;28;19916;-40
2021/12/22 02:19:36;;;;;;;;;;;;;;;18.80;45.85;99960.78;2093850;28;20172;-41
2021/12/22 02:20:36;;;;;;;;;;;;;;;18.80;45.86;99960.78;2087270;28;20380;-40
2021/12/22 02:21:51;;;;;;;;;;;;;;;18.79;45.83;99964.53;2093970;28;19977;-40
2021/12/22 02:22:55;;;;;;;;;;;;;;;18.79;45.82;99967.25;2092817;28;19920;-40
2021/12/22 02:23:55;;;;;;;;;;;;;;;18.79;45.74;99960.91;2093561;28;19917;-40
2021/12/22 02:25:01;;;;;;;;;;;;;;;18.79;45.88;99964.53;2093837;28;19909;-40
2021/12/22 02:26:09;;;;;;;;;;;;;;;18.77;45.87;99961.09;2093058;28;19928;-40
2021/12/22 02:27:18;;;;;;;;;;;;;;;18.79;45.83;99967.25;2088534;28;19981;-40
2021/12/22 02:28:27;;;;;;;;;;;;;;;18.77;45.92;99966.53;2092986;28;19921;-41
2021/12/22 02:29:35;;;;;;;;;;;;;;;18.77;45.77;99966.53;2090940;28;19916;-40
2021/12/22 02:30:36;;;;;;;;;;;;;;;18.78;45.87;99970.13;2096375;28;19974;-40
2021/12/22 02:31:43;;;;;;;;;;;;;;;18.75;45.84;99965.78;2093525;28;19924;-40
2021/12/22 02:33:08;;;;;;;;;;;;;;;18.77;45.70;99973.88;2094456;28;19916;-40
2021/12/22 02:34:05;;;;;;;;;;;;;;;18.77;45.80;99965.69;2095099;28;19939;-40
2021/12/22 02:35:06;;;;;;;;;;;;;;;18.76;45.85;99967.53;2093557;28;20222;-40
2021/12/22 02:37:14;;;;;;;;;;;;;;;18.75;45.94;99965.78;2093498;28;19916;-40
2021/12/22 02:38:18;;;;;;;;;;;;;;;18.75;45.88;99965.78;2091948;28;19961;-41
2021/12/22 02:39:18;;;;;;;;;;;;;;;18.75;45.82;99962.22;2098249;28;20166;-40
2021/12/22 02:40:25;;;;;;;;;;;;;;;18.73;45.83;99976.00;2092774;28;19923;-40
2021/12/22 02:41:29;;;;;;;;;;;;;;;18.75;45.77;99971.25;2091715;28;19916;-40
2021/12/22 02:42:30;;;;;;;;;;;;;;;18.75;45.91;99973.13;2092582;28;20417;-40
2021/12/22 02:43:33;;;;;;;;;;;;;;;18.75;45.90;99971.25;2093599;28;19919;-40
2021/12/22 02:44:33;;;;;;;;;;;;;;;18.75;45.86;99978.59;2087376;28;20393;-40
2021/12/22 02:45:34;;;;;;;;;;;;;;;18.75;45.75;99964.94;2087987;28;19915;-40
2021/12/22 02:46:36;;;;;;;;;;;;;;;18.75;45.81;99979.44;2093213;28;20386;-40
2021/12/22 02:47:36;;;;;;;;;;;;;;;18.75;45.90;99978.59;2094441;28;20381;-40
2021/12/22 02:48:37;;;;;;;;;;;;;;;18.74;45.75;99972.28;2094734;28;20131;-40
2021/12/22 02:49:37;;;;;;;;;;;;;;;18.75;45.70;99979.44;2085808;28;19917;-40
2021/12/22 02:50:37;;;;;;;;;;;;;;;18.75;45.76;99979.44;2085031;28;19924;-40
2021/12/22 02:51:38;;;;;;;;;;;;;;;18.75;45.86;99979.44;2092115;28;20309;-40
2021/12/22 02:53:00;;;;;;;;;;;;;;;18.74;45.82;99975.00;2094383;28;19912;-40
2021/12/22 02:54:15;;;;;;;;;;;;;;;18.74;45.81;99977.75;2090666;28;20238;-40
2021/12/22 02:55:16;;;;;;;;;;;;;;;18.74;45.70;99977.75;2088212;28;19921;-40
2021/12/22 02:57:30;;;;;;;;;;;;;;;18.74;45.78;99977.75;2090804;28;19924;-40
2021/12/22 02:58:57;;;;;;;;;;;;;;;18.73;45.87;99970.53;2092122;28;19916;-40
2021/12/22 03:00:27;;;;;;;;;;;;;;;18.73;45.92;99978.75;2092787;28;19963;-40
2021/12/22 03:02:35;;;;;;;;;;;;;;;18.72;45.85;99979.75;2093422;28;19935;-40
2021/12/22 03:04:57;;;;;;;;;;;;;;;18.73;45.86;99976.00;2094058;28;19916;-40
2021/12/22 03:06:00;;;;;;;;;;;;;;;18.71;45.72;99978.03;2092041;28;19920;-40
2021/12/22 03:07:06;;;;;;;;;;;;;;;18.71;45.75;99972.56;2092965;28;19962;-40
2021/12/22 03:08:06;;;;;;;;;;;;;;;18.72;45.78;99968.84;2093632;28;19919;-40
2021/12/22 03:09:43;;;;;;;;;;;;;;;18.70;45.72;99965.41;2093874;28;20011;-40
2021/12/22 03:10:43;;;;;;;;;;;;;;;18.71;45.88;99963.50;2054712;28;19968;-40
2021/12/22 03:11:44;;;;;;;;;;;;;;;18.70;45.86;99968.13;2058590;28;19917;-40
2021/12/22 03:12:47;;;;;;;;;;;;;;;18.70;45.73;99959.06;2061848;28;19922;-40
2021/12/22 03:13:47;;;;;;;;;;;;;;;18.70;45.73;99965.41;2093979;28;19916;-40
2021/12/22 03:14:47;;;;;;;;;;;;;;;18.69;45.95;99963.69;2093465;28;19912;-39
2021/12/22 03:15:48;;;;;;;;;;;;;;;18.67;45.96;99960.25;2093642;28;20397;-40
2021/12/22 03:16:49;;;;;;;;;;;;;;;18.69;45.79;99963.69;2094602;28;20721;-40
2021/12/22 03:17:49;;;;;;;;;;;;;;;18.68;45.89;99952.91;2093314;28;20048;-40
2021/12/22 03:18:49;;;;;;;;;;;;;;;18.69;45.82;99958.22;2094134;28;20288;-39
2021/12/22 03:19:50;;;;;;;;;;;;;;;18.68;45.81;99959.22;2094768;28;19916;-40
2021/12/22 03:20:59;;;;;;;;;;;;;;;18.69;45.74;99966.41;2083930;28;20758;-39
2021/12/22 03:22:04;;;;;;;;;;;;;;;18.69;45.88;99969.16;2086800;28;19924;-40
2021/12/22 03:23:05;;;;;;;;;;;;;;;18.68;45.75;99963.81;2092068;28;20034;-40
2021/12/22 03:24:05;;;;;;;;;;;;;;;18.67;45.76;99954.78;2091261;28;19924;-40
2021/12/22 03:25:13;;;;;;;;;;;;;;;18.67;45.79;99960.25;2094069;28;20274;-40
2021/12/22 03:26:16;;;;;;;;;;;;;;;18.66;45.93;99963.97;2092465;28;19962;-40
2021/12/22 03:27:17;;;;;;;;;;;;;;;18.67;45.87;99960.25;2086345;28;19912;-40
2021/12/22 03:28:17;;;;;;;;;;;;;;;18.66;45.85;99958.50;2083257;28;20303;-40
2021/12/22 03:29:18;;;;;;;;;;;;;;;18.66;45.81;99960.38;2092450;28;19919;-40
2021/12/22 03:30:20;;;;;;;;;;;;;;;18.66;45.90;99963.97;2092713;28;20015;-40
2021/12/22 03:31:21;;;;;;;;;;;;;;;18.65;45.68;99962.25;2092288;28;19912;-40
2021/12/22 03:32:21;;;;;;;;;;;;;;;18.64;45.84;99966.88;2091159;28;19952;-40
2021/12/22 03:33:21;;;;;;;;;;;;;;;18.64;45.68;99961.41;2094012;28;20346;-41
2021/12/22 03:34:23;;;;;;;;;;;;;;;18.64;45.84;99965.97;2091238;28;19947;-40
2021/12/22 03:35:23;;;;;;;;;;;;;;;18.64;45.81;99960.53;2092929;28;19920;-40
2021/12/22 03:36:24;;;;;;;;;;;;;;;18.63;45.86;99958.81;2092459;28;19908;-40
2021/12/22 03:37:24;;;;;;;;;;;;;;;18.63;45.73;99958.81;2094670;28;20002;-40
2021/12/22 03:38:24;;;;;;;;;;;;;;;18.63;45.87;99956.06;2097206;28;19987;-40
2021/12/22 03:39:25;;;;;;;;;;;;;;;18.62;45.85;99957.09;2093281;28;19908;-41
2021/12/22 03:40:26;;;;;;;;;;;;;;;18.61;45.71;99956.22;2092873;28;19908;-40
2021/12/22 03:41:26;;;;;;;;;;;;;;;18.61;45.69;99955.38;2087783;28;19918;-40
2021/12/22 03:42:27;;;;;;;;;;;;;;;18.61;45.78;99956.22;2094125;28;19923;-40
2021/12/22 03:43:27;;;;;;;;;;;;;;;18.61;45.88;99955.38;2088693;28;20310;-40
2021/12/22 03:44:27;;;;;;;;;;;;;;;18.59;45.90;99960.09;2093488;28;19916;-40
2021/12/22 03:45:28;;;;;;;;;;;;;;;18.60;45.70;99959.97;2093206;28;19942;-40
2021/12/22 03:46:28;;;;;;;;;;;;;;;18.60;45.87;99959.13;2091489;28;19921;-40
2021/12/22 03:47:28;;;;;;;;;;;;;;;18.60;45.89;99961.84;2093838;28;19922;-40
2021/12/22 03:48:29;;;;;;;;;;;;;;;18.58;45.70;99959.25;2091206;28;19915;-40
2021/12/22 03:49:29;;;;;;;;;;;;;;;18.58;45.91;99956.53;2084298;28;19916;-40
2021/12/22 03:50:29;;;;;;;;;;;;;;;18.57;45.82;99960.28;2087474;28;19916;-40
2021/12/22 03:51:30;;;;;;;;;;;;;;;18.58;46.05;99955.66;2094338;28;19916;-40
2021/12/22 03:52:30;;;;;;;;;;;;;;;18.57;45.98;99946.63;2097800;28;20588;-41
2021/12/22 03:53:31;;;;;;;;;;;;;;;18.57;45.84;99949.34;2091541;28;19936;-41
2021/12/22 03:54:31;;;;;;;;;;;;;;;18.57;45.80;99948.47;2093190;28;19919;-40
2021/12/22 03:55:31;;;;;;;;;;;;;;;18.56;45.73;99941.31;2086797;28;19973;-40
2021/12/22 03:56:32;;;;;;;;;;;;;;;18.56;45.97;99944.03;2088254;28;20125;-40
2021/12/22 03:57:33;;;;;;;;;;;;;;;18.55;45.75;99940.47;2088880;28;20382;-40
2021/12/22 03:58:33;;;;;;;;;;;;;;;18.55;45.85;99948.66;2090081;28;20003;-40
2021/12/22 03:59:33;;;;;;;;;;;;;;;18.55;45.80;99950.53;2097748;28;19922;-41
2021/12/22 04:00:35;;;;;;;;;;;;;;;18.54;45.83;99944.19;2092029;28;20165;-40
2021/12/22 04:01:36;;;;;;;;;;;;;;;18.54;46.02;99948.78;2092563;28;20377;-41
2021/12/22 04:02:36;;;;;;;;;;;;;;;18.54;45.80;99949.63;2094688;28;20264;-40
2021/12/22 04:03:39;;;;;;;;;;;;;;;18.53;45.74;99947.94;2085363;28;19948;-40
2021/12/22 04:04:40;;;;;;;;;;;;;;;18.53;45.83;99949.81;2084762;28;19917;-40
2021/12/22 04:05:40;;;;;;;;;;;;;;;18.53;45.85;99947.94;2087795;28;19939;-40
2021/12/22 04:06:42;;;;;;;;;;;;;;;18.53;45.93;99947.06;2090619;28;19986;-40
2021/12/22 04:07:42;;;;;;;;;;;;;;;18.52;45.77;99938.03;2092620;28;20261;-40
2021/12/22 04:08:43;;;;;;;;;;;;;;;18.51;46.07;99944.47;2090884;28;20086;-40
2021/12/22 04:09:43;;;;;;;;;;;;;;;18.51;46.07;99946.38;2092921;28;20179;-40
2021/12/22 04:10:44;;;;;;;;;;;;;;;18.51;45.87;99940.91;2094779;28;19923;-40
2021/12/22 04:11:45;;;;;;;;;;;;;;;18.51;45.95;99940.91;2092796;28;19916;-40
2021/12/22 04:12:55;;;;;;;;;;;;;;;18.50;45.85;99936.47;2093116;28;19916;-39
2021/12/22 04:13:55;;;;;;;;;;;;;;;18.51;45.93;99943.63;2090680;28;19962;-40
2021/12/22 04:14:57;;;;;;;;;;;;;;;18.51;46.04;99935.44;2091948;28;20073;-39
2021/12/22 04:15:57;;;;;;;;;;;;;;;18.50;45.79;99942.78;2093459;28;19919;-40
2021/12/22 04:16:57;;;;;;;;;;;;;;;18.50;45.86;99945.50;2088643;28;19912;-41
2021/12/22 04:17:58;;;;;;;;;;;;;;;18.50;45.93;99941.94;2085320;28;19920;-40
2021/12/22 04:18:58;;;;;;;;;;;;;;;18.49;45.97;99951.09;2082979;28;19916;-40
2021/12/22 04:19:59;;;;;;;;;;;;;;;18.49;45.97;99941.03;2084023;28;20366;-40
2021/12/22 04:20:59;;;;;;;;;;;;;;;18.48;45.86;99938.47;2092573;28;19908;-40
2021/12/22 04:21:59;;;;;;;;;;;;;;;18.49;45.95;99942.91;2091579;28;20270;-40
2021/12/22 04:23:00;;;;;;;;;;;;;;;18.48;46.07;99938.47;2094621;28;19943;-40
2021/12/22 04:24:01;;;;;;;;;;;;;;;18.48;46.07;99933.03;2083819;28;19987;-40
2021/12/22 04:25:02;;;;;;;;;;;;;;;18.47;46.06;99934.91;2083015;28;19918;-40
2021/12/22 04:26:02;;;;;;;;;;;;;;;18.47;46.06;99931.28;2087442;28;19931;-40
2021/12/22 04:27:03;;;;;;;;;;;;;;;18.47;46.08;99934.91;2091831;28;19924;-40
2021/12/22 04:28:07;;;;;;;;;;;;;;;18.47;46.14;99943.09;2092265;28;20482;-40
2021/12/22 04:29:10;;;;;;;;;;;;;;;18.46;46.07;99935.03;2091090;28;19924;-40
2021/12/22 04:30:10;;;;;;;;;;;;;;;18.47;46.04;99939.47;2092124;28;20225;-40
2021/12/22 04:31:11;;;;;;;;;;;;;;;18.46;45.99;99935.03;2091644;28;20378;-40
2021/12/22 04:32:11;;;;;;;;;;;;;;;18.47;46.06;99936.75;2089290;28;20108;-40
2021/12/22 04:33:11;;;;;;;;;;;;;;;18.45;45.90;99933.28;2095267;28;20401;-40
2021/12/22 04:34:11;;;;;;;;;;;;;;;18.45;45.90;99930.56;2089847;28;20239;-40
2021/12/22 04:35:12;;;;;;;;;;;;;;;18.46;45.97;99935.03;2092358;28;19919;-40
2021/12/22 04:36:12;;;;;;;;;;;;;;;18.44;46.01;99935.16;2089296;28;20820;-40
2021/12/22 04:37:12;;;;;;;;;;;;;;;18.44;46.09;99932.44;2090787;28;19920;-40
2021/12/22 04:38:13;;;;;;;;;;;;;;;18.44;46.00;99935.16;2091650;28;19993;-40
2021/12/22 04:39:13;;;;;;;;;;;;;;;18.45;45.99;99933.28;2088601;28;19960;-40
2021/12/22 04:40:13;;;;;;;;;;;;;;;18.44;45.97;99932.44;2094127;28;20329;-40
2021/12/22 04:41:14;;;;;;;;;;;;;;;18.43;46.09;99931.59;2090825;28;19920;-40
2021/12/22 04:42:16;;;;;;;;;;;;;;;18.40;46.15;99931.91;2090060;28;19928;-40
2021/12/22 04:43:16;;;;;;;;;;;;;;;18.42;46.05;99932.63;2091984;28;20215;-40
2021/12/22 04:44:16;;;;;;;;;;;;;;;18.41;46.06;99933.59;2093219;28;19924;-40
2021/12/22 04:45:17;;;;;;;;;;;;;;;18.41;46.10;99939.06;2091459;28;19924;-40
2021/12/22 04:46:17;;;;;;;;;;;;;;;18.41;46.10;99939.06;2088826;28;19920;-40
2021/12/22 04:47:18;;;;;;;;;;;;;;;18.38;46.18;99928.44;2087903;28;19970;-40
2021/12/22 04:48:18;;;;;;;;;;;;;;;18.41;46.02;99944.53;2092299;28;19908;-40
2021/12/22 04:49:19;;;;;;;;;;;;;;;18.39;46.21;99943.81;2092438;28;19924;-40
2021/12/22 04:50:21;;;;;;;;;;;;;;;18.40;46.13;99933.78;2092199;28;19916;-39
2021/12/22 04:51:25;;;;;;;;;;;;;;;18.38;46.25;99936.63;2092480;28;19916;-40
2021/12/22 04:52:31;;;;;;;;;;;;;;;18.39;46.21;99932.03;2089672;28;20806;-40
2021/12/22 04:53:40;;;;;;;;;;;;;;;18.39;46.10;99935.63;2087156;28;19916;-41
2021/12/22 04:55:46;;;;;;;;;;;;;;;18.37;46.12;99929.47;2093293;28;20041;-40
2021/12/22 04:56:47;;;;;;;;;;;;;;;18.37;46.25;99932.19;2090983;28;20053;-40
2021/12/22 04:57:47;;;;;;;;;;;;;;;18.37;46.11;99937.66;2093085;28;20380;-40
2021/12/22 04:58:47;;;;;;;;;;;;;;;18.35;46.25;99926.03;2090626;28;19917;-40
2021/12/22 04:59:48;;;;;;;;;;;;;;;18.36;46.08;99935.91;2089508;28;20328;-40
2021/12/22 05:00:48;;;;;;;;;;;;;;;18.36;46.10;99929.63;2093297;28;19916;-40
2021/12/22 05:01:49;;;;;;;;;;;;;;;18.35;46.13;99934.22;2084460;28;19921;-40
2021/12/22 05:02:50;;;;;;;;;;;;;;;18.35;46.15;99927.91;2083277;28;19920;-40
2021/12/22 05:03:50;;;;;;;;;;;;;;;18.34;46.36;99935.22;2092093;28;19997;-40
2021/12/22 05:04:50;;;;;;;;;;;;;;;18.35;46.13;99942.41;2093319;28;19912;-40
2021/12/22 05:05:51;;;;;;;;;;;;;;;18.34;46.30;99932.47;2092760;28;19923;-40
2021/12/22 05:06:52;;;;;;;;;;;;;;;18.34;46.29;99937.94;2093053;28;19923;-40
2021/12/22 05:07:53;;;;;;;;;;;;;;;18.33;46.21;99941.69;2091520;28;19916;-40
2021/12/22 05:08:53;;;;;;;;;;;;;;;18.33;46.12;99946.28;2094133;28;19916;-40
2021/12/22 05:09:54;;;;;;;;;;;;;;;18.34;46.15;99946.13;2095236;28;19915;-40
2021/12/22 05:10:54;;;;;;;;;;;;;;;18.33;45.99;99938.09;2099398;28;19908;-40
2021/12/22 05:11:54;;;;;;;;;;;;;;;18.32;46.07;99948.13;2092756;28;19908;-40
2021/12/22 05:12:55;;;;;;;;;;;;;;;18.31;46.26;99943.69;2091777;28;19920;-40
2021/12/22 05:13:55;;;;;;;;;;;;;;;18.32;46.24;99945.41;2092548;28;19919;-40
2021/12/22 05:14:55;;;;;;;;;;;;;;;18.31;46.07;99943.69;2093107;28;19916;-40
2021/12/22 05:15:56;;;;;;;;;;;;;;;18.31;46.25;99943.69;2090938;28;19943;-40
2021/12/22 05:17:04;;;;;;;;;;;;;;;18.31;46.25;99946.44;2090331;28;19962;-40
2021/12/22 05:18:20;;;;;;;;;;;;;;;18.31;46.16;99951.88;2096674;28;19916;-40
2021/12/22 05:19:21;;;;;;;;;;;;;;;18.30;46.25;99944.72;2092155;28;20025;-40
2021/12/22 05:20:21;;;;;;;;;;;;;;;18.30;46.36;99947.44;2093480;28;19908;-40
2021/12/22 05:21:22;;;;;;;;;;;;;;;18.30;46.22;99947.44;2085578;28;19916;-40
2021/12/22 05:22:23;;;;;;;;;;;;;;;18.29;46.35;99951.16;2091947;28;19925;-41
2021/12/22 05:23:23;;;;;;;;;;;;;;;18.29;46.16;99950.31;2092816;28;19912;-40
2021/12/22 05:24:24;;;;;;;;;;;;;;;18.29;46.28;99947.59;2090419;28;19912;-40
2021/12/22 05:25:24;;;;;;;;;;;;;;;18.28;46.20;99949.47;2091400;28;19932;-40
2021/12/22 05:26:28;;;;;;;;;;;;;;;18.28;46.28;99948.59;2090116;28;19963;-40
2021/12/22 05:27:29;;;;;;;;;;;;;;;18.27;46.34;99947.72;2084885;28;19912;-40
2021/12/22 05:28:29;;;;;;;;;;;;;;;18.27;46.17;99945.00;2075160;28;19913;-40
2021/12/22 05:29:29;;;;;;;;;;;;;;;18.26;46.34;99954.19;2079150;28;19918;-40
2021/12/22 05:30:30;;;;;;;;;;;;;;;18.27;46.26;99938.69;2087835;28;20369;-39
2021/12/22 05:31:30;;;;;;;;;;;;;;;18.26;46.19;99951.47;2086086;28;19908;-40
2021/12/22 05:32:32;;;;;;;;;;;;;;;18.25;46.31;99944.31;2090227;28;19917;-40
2021/12/22 05:33:32;;;;;;;;;;;;;;;18.26;46.20;99940.56;2093626;28;19955;-40
2021/12/22 05:34:33;;;;;;;;;;;;;;;18.25;46.21;99947.03;2092132;28;19912;-41
2021/12/22 05:35:33;;;;;;;;;;;;;;;18.25;46.40;99955.22;2091478;28;20405;-40